Crouch, Illinois
Current Conditions -  °F | °C
As of 1:15 PM on Friday 21 Nov 2014 (Local Time) from KFWC Reporting Station
Clear Clear  
Wind Chill: 34°   Ceiling: Unl
Heat Index: 40°   Visibility: 10mi
Dew Point: 16°   Wind: 8mph
Humidity: 38%   Direction: 120°ESE
Pressure: 30.4"   Gusts: NA
Location:  38.3069°N, 88.55°W
Report Text: KFWC 211915Z AUTO 12007KT 10SM CLR 04/M09 A3040 RMK AO1 T00431088
Loading
Personal Weather Stations






























Interactive Weather Map New forecast layout! Learn more

10-Day Weather Forecast

Advertisements
Track Severe Weather on mobile